Strona główna
METAR-TAF:

METAR-TAF

Lotnisko :

Port lotniczy Moroni

Moroni, Komory

Szerokość geograficzna: 11-32S, Długość geograficzna: 043-16E, wysokość: 29 m

Aktualna obserwacja pogody

Raport powstał 8 godziny i 47 minut temu, godzina 18:00 UTC
Wiatr 4 kt od południowy wschód
Temperatura 28°C
Wilgotność 79%
Ciśnienie 1012 hPa
Widzialność 10 km lub więcej
Mało chmury na wysokości 2000 ft

METAR: FMCH 311800Z 13004KT 9999 FEW020 28/24 Q1012 NOSIG

czas: 05:47 (02:47 UTC)

Prognoza

Raport powstał 9 godziny i 47 minut temu, godzina 17:00 UTC
Prognoza ważna od 31 godzina 18 UTC do 01 godzina 24 UTC
Wiatr 3 kt od wschodnio-południowy wschód
Widzialność 10 km lub więcej
Rozproszone chmury na wysokości 2200 ft
Stopniowe zmiany
od 01 godzina 05 UTC do 01 godzina 07 UTC
Wiatr 13 kt od południowy zachód
Stopniowe zmiany
od 01 godzina 15 UTC do 01 godzina 17 UTC
Wiatr 3 kt z kierunków zmiennych

TAF: FMCH 311700Z 3118/0124 12003KT 9999 SCT022 BECMG 0105/0107 23013KT BECMG 0115/0117 VRB03KT

Obserwacja i prognoza pogody dla ponad 4000 lotnisk (raport METAR i TAF).

Dostępne stacje oznaczono żółtymi i czerwonymi punktami na mapie.

Najedź kursorem aby zobaczyć nazwę stacji.

Kliknij aby zobaczyć obserwacje i prognozy pogody.

Aby zmienić mapę: kliknij na zielony przycisk z czarnym krzyżykiem, aby powiększyć; na zielony przycisk z myślnikiem, aby pomniejszyć; na zielone strzałki, aby przejść do map sąsiednich.


METAR-TAF: